Weather observations for the past three days for
Kivalina, Kivalina Airport
Imperial (Metric)
Date Time (akdt) Wind (mph) Vis. (mi.) Weather Sky Cond. Temperature (ºF) Relative Humidity Wind Chill (°F) Heat Index (°F) Pressure Precipitation (in)
Air Dwpt 6 hour altimeter (in) sea level (mb) 1 hr 3 hr 6 hr
Max. Min.
03 21:53 S 17 10.00 Overcast BKN018 OVC035 28 25 28 28 88% 17 30.04 1017.3
03 20:53 S 18 10.00 Overcast SCT026 OVC037 28 24.1 85% 16 30.05 1017.4
03 19:53 S 21 6.00 Fog/Mist and Breezy OVC019 28 24.1 85% 15 30.04 1017.3
03 18:53 S 22 5.00 Fog/Mist and Breezy OVC020 28 25 88% 15 30.04 1017.1
03 17:53 S 18 9.00 Overcast SCT028 OVC036 28 25 88% 16 30.04 1017.2
03 16:53 S 17 5.00 Fog/Mist BKN034 OVC042 28 25 88% 17 30.04 1017.3
03 15:53 S 17 5.00 Fog/Mist SCT011 OVC024 28 25 28 24.1 88% 17 30.04 1017.4
03 14:53 S 20 10.00 Overcast OVC010 27 25 92% 14 30.04 1017.2
03 13:53 S 18 5.00 Fog/Mist BKN009 OVC014 26.1 24.1 92% 14 30.04 1017.1
03 12:53 S 13 7.00 Overcast BKN014 OVC020 26.1 23 88% 16 30.03 1017.0
03 11:53 S 17 10.00 Overcast SCT015 BKN023 OVC033 26.1 21.9 84% 14 30.02 1016.5
03 10:53 S 16 10.00 Overcast OVC033 25 19.9 81% 13 30 1015.9
03 09:53 S 16 10.00 Overcast FEW017 BKN023 OVC029 24.1 19.9 24.1 21 84% 12 29.99 1015.4
03 08:53 SW 12 10.00 Overcast OVC017 21.9 17.1 82% 11 29.97 1015.0
03 07:53 SW 20 10.00 Overcast OVC016 21 16 81% 7 29.95 1014.3
03 06:53 SW 16 10.00 Overcast OVC017 21 16 81% 8 29.93 1013.6
03 05:53 SW 17 10.00 Overcast OVC015 21 17.1 85% 8 29.92 1013.1
03 04:53 SW 17 10.00 Overcast OVC017 21.9 17.1 82% 9 29.9 1012.5
03 02:53 SW 15 4.00 Fog/Mist OVC010 21.9 19.9 92% 10 29.86 1011.2
03 01:53 SW 14 10.00 Overcast OVC011 21.9 19.9 92% 10 29.84 1010.6
03 00:53 SW 15 7.00 Overcast OVC010 23 19.9 88% 11 29.82 1009.8
02 23:53 SW 13 6.00 Fog/Mist OVC009 23 21 92% 12 29.8 1009.1
02 22:53 SW 15 10.00 Overcast OVC008 23 21 92% 11 29.77 1008.1
02 21:53 SW 16 8.00 Overcast OVC008 23 21 27 23 92% 11 29.75 1007.5
02 20:53 SW 15 10.00 Overcast OVC009 24.1 21 88% 12 29.73 1006.6
02 19:53 SW 14 6.00 Fog/Mist OVC009 25 21.9 88% 14 29.7 1005.8
02 18:53 SW 13 5.00 Fog/Mist OVC010 25 23 92% 14 29.67 1004.9
02 17:53 SW 15 8.00 Overcast OVC009 26.1 23 88% 15 29.65 1004.1
02 16:53 SW 15 1.75 Fog/Mist SCT008 OVC024 27 24.1 89% 16 29.62 1003.1
02 15:53 SW 13 2.50 Fog/Mist BKN007 OVC034 27 25 34 27 92% 17 29.59 1001.9
02 14:53 SW 14 1.50 Fog/Mist BKN006 BKN012 OVC018 28.9 27 92% 19 29.56 1001.0
02 13:53 SW 10 8.00 Overcast BKN005 BKN010 OVC015 30.9 30 96% 23 29.53 999.9
02 12:53 SW 9 1.00 Fog/Mist VV005 32 32 100% 25 29.5 998.9
02 11:53 S 6 0.50 Fog FEW005 BKN012 OVC025 33.1 33.1 100% 28 29.47 998.0
02 10:53 S 7 0.50 Fog FEW003 OVC011 33.1 33.1 100% 28 29.45 997.1
02 09:53 S 5 0.50 Fog VV004 34 33.1 35.1 34 97% 30 29.43 996.5
02 08:53 SE 5 2.50 Fog/Mist OVC006 34 33.1 97% 30 29.41 996.0
02 07:53 E 5 10.00 Overcast BKN012 OVC022 34 33.1 97% 30 29.4 995.4
02 06:53 E 6 10.00 Overcast OVC008 34 33.1 97% 29 29.38 995.0
02 05:53 E 6 10.00 Overcast BKN018 OVC025 34 33.1 97% 29 29.37 994.6
02 04:53 E 7 10.00 Overcast BKN012 OVC017 35.1 33.1 93% 30 29.36 994.3
02 03:53 E 10 10.00 Overcast BKN018 OVC032 34 33.1 35.1 34 97% 27 29.35 994.0
02 02:53 E 9 10.00 Overcast BKN018 OVC024 34 33.1 97% 27 29.35 993.8
02 01:53 E 10 9.00 Overcast OVC017 34 34 100% 27 29.34 993.7
02 00:53 E 10 9.00 Overcast OVC018 34 34 100% 27 29.34 993.4
01 23:53 E 12 10.00 Overcast OVC020 35.1 34 96% 28 29.33 993.2
01 22:53 E 10 10.00 Overcast OVC021 35.1 34 96% 28 29.33 993.0
01 21:53 E 9 9.00 Overcast OVC022 35.1 34 36 35.1 96% 29 29.32 993.0
01 20:53 E 9 9.00 Overcast BKN018 OVC024 36 35.1 97% 30 29.33 993.1
01 19:53 E 6 5.00 Fog/Mist OVC013 35.1 34 96% 31 29.33 993.2
01 18:53 E 7 7.00 Overcast OVC014 35.1 34 96% 30 29.34 993.4
01 17:53 E 8 7.00 Overcast OVC014 35.1 34 96% 29 29.34 993.5
01 16:53 E 9 6.00 Fog/Mist OVC013 36 34 93% 30 29.35 994.0
01 15:53 E 6 8.00 Overcast OVC014 35.1 34 36 33.1 96% 31 29.36 994.3
01 14:53 E 8 10.00 Overcast OVC014 35.1 34 96% 29 29.37 994.5
01 13:53 E 8 6.00 Fog/Mist BKN010 OVC014 35.1 33.1 93% 29 29.38 994.9
01 12:53 E 12 9.00 Overcast OVC015 35.1 33.1 93% 28 29.39 995.1
01 11:53 E 12 3.00 Fog/Mist OVC015 34 32 92% 26 29.39 995.3
01 10:53 E 13 8.00 Overcast OVC017 34 32 92% 26 29.4 995.5
01 09:53 E 13 7.00 Overcast OVC021 34 32 35.1 34 92% 26 29.41 995.8
01 08:53 E 16 6.00 Fog/Mist OVC024 34 32 92% 24 29.42 996.3
01 07:53 E 18 7.00 Overcast OVC026 34 32 92% 24 29.43 996.7
01 06:53 E 22 7.00 Overcast and Breezy OVC023 35.1 32 89% 24 29.45 997.4
01 05:53 E 22 G 30 10.00 Overcast and Breezy OVC033 35.1 32 89% 24 29.47 998.0
01 04:53 E 21 10.00 Overcast and Breezy OVC033 34 32 92% 23 29.5 998.9
01 03:53 NE 17 10.00 Overcast OVC039 34 32 37 34 92% 24 29.52 999.6
01 02:53 E 17 10.00 Overcast FEW020 OVC028 35.1 32 89% 26 29.55 1000.5
01 01:53 NE 18 10.00 Overcast OVC032 35.1 32 89% 25 29.57 1001.3
01 00:53 E 18 10.00 Overcast OVC050 34 32 92% 24 29.59 1002.1
30 23:53 E 20 10.00 Overcast BKN060 OVC080 36 30.9 82% 26 29.61 1002.5
30 22:53 NE 14 10.00 Overcast SCT070 OVC085 36 30 79% 28 29.61 1002.7
Date Time (akdt) Wind (mph) Vis. (mi.) Weather Sky Cond. Air Dwpt Max. Min. Relative Humidity Wind Chill (°F) Heat Index (°F) altimeter (in) sea level (mb) 1 hr 3 hr 6 hr
6 hour
Temperature (ºF) Pressure Precipitation (in)